sensor_id;sensor_type;location;lat;lon;timestamp;P1;durP1;ratioP1;P2;durP2;ratioP2
22131;SDS011;11232;51.748;19.390;2023-07-20T00:01:40;3.10;;;2.00;;
22131;SDS011;11232;51.748;19.390;2023-07-20T00:04:09;3.30;;;2.00;;
22131;SDS011;11232;51.748;19.390;2023-07-20T00:06:35;4.30;;;2.17;;
22131;SDS011;11232;51.748;19.390;2023-07-20T00:09:08;4.80;;;2.03;;
22131;SDS011;11232;51.748;19.390;2023-07-20T00:11:38;6.28;;;1.85;;
22131;SDS011;11232;51.748;19.390;2023-07-20T00:14:04;5.05;;;2.30;;
22131;SDS011;11232;51.748;19.390;2023-07-20T00:16:30;3.53;;;2.42;;
22131;SDS011;11232;51.748;19.390;2023-07-20T00:18:56;4.15;;;2.20;;
22131;SDS011;11232;51.748;19.390;2023-07-20T00:21:22;2.95;;;2.10;;
22131;SDS011;11232;51.748;19.390;2023-07-20T00:23:48;4.97;;;2.25;;
22131;SDS011;11232;51.748;19.390;2023-07-20T00:26:14;5.18;;;2.53;;
22131;SDS011;11232;51.748;19.390;2023-07-20T00:28:40;6.35;;;2.20;;
22131;SDS011;11232;51.748;19.390;2023-07-20T00:31:06;3.35;;;2.13;;
22131;SDS011;11232;51.748;19.390;2023-07-20T00:33:32;4.80;;;2.35;;
22131;SDS011;11232;51.748;19.390;2023-07-20T00:35:58;4.18;;;2.22;;
22131;SDS011;11232;51.748;19.390;2023-07-20T00:38:24;5.35;;;2.88;;
22131;SDS011;11232;51.748;19.390;2023-07-20T00:40:50;5.53;;;2.30;;
22131;SDS011;11232;51.748;19.390;2023-07-20T00:43:16;5.13;;;2.17;;
22131;SDS011;11232;51.748;19.390;2023-07-20T00:45:42;4.38;;;2.00;;
22131;SDS011;11232;51.748;19.390;2023-07-20T00:48:09;3.75;;;2.17;;
22131;SDS011;11232;51.748;19.390;2023-07-20T00:50:35;7.03;;;2.40;;
22131;SDS011;11232;51.748;19.390;2023-07-20T00:53:02;5.45;;;2.15;;
22131;SDS011;11232;51.748;19.390;2023-07-20T00:55:32;2.92;;;2.05;;
22131;SDS011;11232;51.748;19.390;2023-07-20T00:57:59;3.63;;;2.13;;
22131;SDS011;11232;51.748;19.390;2023-07-20T01:00:25;4.55;;;2.10;;
22131;SDS011;11232;51.748;19.390;2023-07-20T01:02:51;4.38;;;2.20;;
22131;SDS011;11232;51.748;19.390;2023-07-20T01:05:17;3.58;;;2.30;;
22131;SDS011;11232;51.748;19.390;2023-07-20T01:07:51;4.75;;;2.40;;
22131;SDS011;11232;51.748;19.390;2023-07-20T01:12:48;4.68;;;2.22;;
22131;SDS011;11232;51.748;19.390;2023-07-20T01:15:17;3.65;;;2.20;;
22131;SDS011;11232;51.748;19.390;2023-07-20T01:17:43;3.63;;;2.17;;
22131;SDS011;11232;51.748;19.390;2023-07-20T01:20:10;3.42;;;2.50;;
22131;SDS011;11232;51.748;19.390;2023-07-20T01:28:07;3.22;;;2.28;;
22131;SDS011;11232;51.748;19.390;2023-07-20T01:33:17;4.05;;;2.08;;
22131;SDS011;11232;51.748;19.390;2023-07-20T01:35:45;8.23;;;2.42;;
22131;SDS011;11232;51.748;19.390;2023-07-20T01:38:12;4.55;;;2.38;;
22131;SDS011;11232;51.748;19.390;2023-07-20T01:40:38;3.22;;;2.20;;
22131;SDS011;11232;51.748;19.390;2023-07-20T01:43:05;4.05;;;2.20;;
22131;SDS011;11232;51.748;19.390;2023-07-20T01:45:31;5.63;;;2.25;;
22131;SDS011;11232;51.748;19.390;2023-07-20T01:47:57;4.75;;;2.15;;
22131;SDS011;11232;51.748;19.390;2023-07-20T01:50:22;5.75;;;2.50;;
22131;SDS011;11232;51.748;19.390;2023-07-20T01:52:49;4.90;;;2.50;;
22131;SDS011;11232;51.748;19.390;2023-07-20T01:55:15;3.72;;;2.65;;
22131;SDS011;11232;51.748;19.390;2023-07-20T01:57:41;6.43;;;3.00;;
22131;SDS011;11232;51.748;19.390;2023-07-20T02:00:07;4.70;;;2.88;;
22131;SDS011;11232;51.748;19.390;2023-07-20T02:02:34;5.13;;;2.20;;
22131;SDS011;11232;51.748;19.390;2023-07-20T02:05:00;2.90;;;2.50;;
22131;SDS011;11232;51.748;19.390;2023-07-20T02:07:26;3.75;;;2.80;;
22131;SDS011;11232;51.748;19.390;2023-07-20T02:09:52;3.97;;;3.17;;
22131;SDS011;11232;51.748;19.390;2023-07-20T02:12:19;3.40;;;2.80;;
22131;SDS011;11232;51.748;19.390;2023-07-20T02:14:45;4.38;;;3.33;;
22131;SDS011;11232;51.748;19.390;2023-07-20T02:17:11;4.82;;;3.35;;
22131;SDS011;11232;51.748;19.390;2023-07-20T02:19:37;7.28;;;3.20;;
22131;SDS011;11232;51.748;19.390;2023-07-20T02:22:03;7.88;;;3.40;;
22131;SDS011;11232;51.748;19.390;2023-07-20T02:24:30;8.02;;;3.53;;
22131;SDS011;11232;51.748;19.390;2023-07-20T02:26:56;8.73;;;3.38;;
22131;SDS011;11232;51.748;19.390;2023-07-20T02:29:22;4.57;;;3.30;;
22131;SDS011;11232;51.748;19.390;2023-07-20T02:31:48;7.93;;;3.28;;
22131;SDS011;11232;51.748;19.390;2023-07-20T02:34:14;6.93;;;3.67;;
22131;SDS011;11232;51.748;19.390;2023-07-20T02:36:40;5.95;;;3.88;;
22131;SDS011;11232;51.748;19.390;2023-07-20T02:39:07;6.32;;;4.38;;
22131;SDS011;11232;51.748;19.390;2023-07-20T02:41:33;8.63;;;4.30;;
22131;SDS011;11232;51.748;19.390;2023-07-20T02:44:00;5.28;;;4.20;;
22131;SDS011;11232;51.748;19.390;2023-07-20T02:46:27;7.32;;;4.15;;
22131;SDS011;11232;51.748;19.390;2023-07-20T02:48:55;9.40;;;4.35;;
22131;SDS011;11232;51.748;19.390;2023-07-20T02:51:21;11.35;;;4.25;;
22131;SDS011;11232;51.748;19.390;2023-07-20T02:53:47;12.90;;;5.35;;
22131;SDS011;11232;51.748;19.390;2023-07-20T02:56:13;8.05;;;4.63;;
22131;SDS011;11232;51.748;19.390;2023-07-20T02:58:41;6.22;;;4.18;;
22131;SDS011;11232;51.748;19.390;2023-07-20T03:01:08;7.88;;;4.72;;
22131;SDS011;11232;51.748;19.390;2023-07-20T03:03:37;6.57;;;4.68;;
22131;SDS011;11232;51.748;19.390;2023-07-20T03:06:06;6.57;;;4.78;;
22131;SDS011;11232;51.748;19.390;2023-07-20T03:08:34;9.85;;;4.82;;
22131;SDS011;11232;51.748;19.390;2023-07-20T03:11:01;5.60;;;4.78;;
22131;SDS011;11232;51.748;19.390;2023-07-20T03:13:27;8.85;;;4.28;;
22131;SDS011;11232;51.748;19.390;2023-07-20T03:15:53;6.93;;;4.63;;
22131;SDS011;11232;51.748;19.390;2023-07-20T03:18:19;7.22;;;4.95;;
22131;SDS011;11232;51.748;19.390;2023-07-20T03:20:45;8.85;;;4.22;;
22131;SDS011;11232;51.748;19.390;2023-07-20T03:23:11;7.43;;;4.63;;
22131;SDS011;11232;51.748;19.390;2023-07-20T03:25:37;6.85;;;4.57;;
22131;SDS011;11232;51.748;19.390;2023-07-20T03:28:03;10.05;;;5.10;;
22131;SDS011;11232;51.748;19.390;2023-07-20T03:30:29;6.32;;;4.30;;
22131;SDS011;11232;51.748;19.390;2023-07-20T03:32:55;6.93;;;4.30;;
22131;SDS011;11232;51.748;19.390;2023-07-20T03:35:21;7.68;;;4.45;;
22131;SDS011;11232;51.748;19.390;2023-07-20T03:37:48;7.28;;;3.65;;
22131;SDS011;11232;51.748;19.390;2023-07-20T03:40:14;9.98;;;4.68;;
22131;SDS011;11232;51.748;19.390;2023-07-20T03:42:41;8.60;;;4.75;;
22131;SDS011;11232;51.748;19.390;2023-07-20T03:45:07;6.20;;;4.70;;
22131;SDS011;11232;51.748;19.390;2023-07-20T03:47:33;9.90;;;5.22;;
22131;SDS011;11232;51.748;19.390;2023-07-20T03:49:59;8.60;;;4.03;;
22131;SDS011;11232;51.748;19.390;2023-07-20T03:52:25;7.22;;;4.18;;
22131;SDS011;11232;51.748;19.390;2023-07-20T03:54:51;7.07;;;4.75;;
22131;SDS011;11232;51.748;19.390;2023-07-20T03:57:17;5.68;;;4.15;;
22131;SDS011;11232;51.748;19.390;2023-07-20T03:59:46;11.30;;;4.88;;
22131;SDS011;11232;51.748;19.390;2023-07-20T04:02:12;6.82;;;4.10;;
22131;SDS011;11232;51.748;19.390;2023-07-20T04:04:38;6.70;;;4.50;;
22131;SDS011;11232;51.748;19.390;2023-07-20T04:07:04;9.55;;;4.40;;
22131;SDS011;11232;51.748;19.390;2023-07-20T04:09:31;7.75;;;4.30;;
22131;SDS011;11232;51.748;19.390;2023-07-20T04:11:57;8.05;;;4.35;;
22131;SDS011;11232;51.748;19.390;2023-07-20T04:14:23;9.68;;;5.03;;
22131;SDS011;11232;51.748;19.390;2023-07-20T04:16:49;6.88;;;4.40;;
22131;SDS011;11232;51.748;19.390;2023-07-20T04:19:16;9.40;;;4.93;;
22131;SDS011;11232;51.748;19.390;2023-07-20T04:21:43;8.10;;;4.50;;
22131;SDS011;11232;51.748;19.390;2023-07-20T04:24:09;5.05;;;4.55;;
22131;SDS011;11232;51.748;19.390;2023-07-20T04:26:35;5.30;;;4.50;;
22131;SDS011;11232;51.748;19.390;2023-07-20T04:29:01;8.68;;;4.75;;
22131;SDS011;11232;51.748;19.390;2023-07-20T04:31:28;8.60;;;5.25;;
22131;SDS011;11232;51.748;19.390;2023-07-20T04:33:57;8.80;;;4.90;;
22131;SDS011;11232;51.748;19.390;2023-07-20T04:36:23;9.57;;;4.97;;
22131;SDS011;11232;51.748;19.390;2023-07-20T04:38:49;7.28;;;4.72;;
22131;SDS011;11232;51.748;19.390;2023-07-20T04:41:15;8.05;;;4.40;;
22131;SDS011;11232;51.748;19.390;2023-07-20T04:43:41;7.57;;;4.82;;
22131;SDS011;11232;51.748;19.390;2023-07-20T04:46:08;6.45;;;4.55;;
22131;SDS011;11232;51.748;19.390;2023-07-20T04:48:34;12.23;;;6.30;;
22131;SDS011;11232;51.748;19.390;2023-07-20T04:51:00;8.20;;;4.88;;
22131;SDS011;11232;51.748;19.390;2023-07-20T04:53:26;7.70;;;4.60;;
22131;SDS011;11232;51.748;19.390;2023-07-20T04:55:52;8.32;;;4.47;;
22131;SDS011;11232;51.748;19.390;2023-07-20T04:58:19;5.55;;;4.32;;
22131;SDS011;11232;51.748;19.390;2023-07-20T05:00:46;5.30;;;3.90;;
22131;SDS011;11232;51.748;19.390;2023-07-20T05:03:11;7.60;;;4.80;;
22131;SDS011;11232;51.748;19.390;2023-07-20T05:05:38;6.25;;;4.35;;
22131;SDS011;11232;51.748;19.390;2023-07-20T05:08:04;7.13;;;4.60;;
22131;SDS011;11232;51.748;19.390;2023-07-20T05:10:30;6.30;;;4.78;;
22131;SDS011;11232;51.748;19.390;2023-07-20T05:12:56;8.77;;;4.43;;
22131;SDS011;11232;51.748;19.390;2023-07-20T05:15:22;8.27;;;4.10;;
22131;SDS011;11232;51.748;19.390;2023-07-20T05:17:47;7.50;;;4.35;;
22131;SDS011;11232;51.748;19.390;2023-07-20T05:20:14;6.55;;;4.88;;
22131;SDS011;11232;51.748;19.390;2023-07-20T05:22:40;13.27;;;5.38;;
22131;SDS011;11232;51.748;19.390;2023-07-20T05:25:09;9.10;;;4.80;;
22131;SDS011;11232;51.748;19.390;2023-07-20T05:27:36;5.68;;;4.20;;
22131;SDS011;11232;51.748;19.390;2023-07-20T05:30:03;7.65;;;4.68;;
22131;SDS011;11232;51.748;19.390;2023-07-20T05:32:29;7.30;;;4.22;;
22131;SDS011;11232;51.748;19.390;2023-07-20T05:34:55;8.43;;;4.13;;
22131;SDS011;11232;51.748;19.390;2023-07-20T05:37:21;6.38;;;4.10;;
22131;SDS011;11232;51.748;19.390;2023-07-20T05:39:47;5.55;;;4.68;;
22131;SDS011;11232;51.748;19.390;2023-07-20T05:42:13;5.82;;;4.30;;
22131;SDS011;11232;51.748;19.390;2023-07-20T05:44:39;5.95;;;3.40;;
22131;SDS011;11232;51.748;19.390;2023-07-20T05:47:05;6.38;;;3.63;;
22131;SDS011;11232;51.748;19.390;2023-07-20T05:49:31;7.93;;;4.00;;
22131;SDS011;11232;51.748;19.390;2023-07-20T05:51:57;5.65;;;4.43;;
22131;SDS011;11232;51.748;19.390;2023-07-20T05:54:24;7.97;;;4.88;;
22131;SDS011;11232;51.748;19.390;2023-07-20T05:56:50;7.40;;;4.72;;
22131;SDS011;11232;51.748;19.390;2023-07-20T05:59:16;7.72;;;5.35;;
22131;SDS011;11232;51.748;19.390;2023-07-20T06:01:43;7.75;;;4.60;;
22131;SDS011;11232;51.748;19.390;2023-07-20T06:04:09;8.90;;;4.75;;
22131;SDS011;11232;51.748;19.390;2023-07-20T06:06:35;12.82;;;4.68;;
22131;SDS011;11232;51.748;19.390;2023-07-20T06:09:01;4.97;;;3.67;;
22131;SDS011;11232;51.748;19.390;2023-07-20T06:11:34;5.43;;;4.50;;
22131;SDS011;11232;51.748;19.390;2023-07-20T06:14:00;6.78;;;3.70;;
22131;SDS011;11232;51.748;19.390;2023-07-20T06:16:26;8.50;;;4.10;;
22131;SDS011;11232;51.748;19.390;2023-07-20T06:18:52;5.22;;;3.70;;
22131;SDS011;11232;51.748;19.390;2023-07-20T06:21:18;4.63;;;3.15;;
22131;SDS011;11232;51.748;19.390;2023-07-20T06:23:44;4.80;;;3.60;;
22131;SDS011;11232;51.748;19.390;2023-07-20T06:26:11;7.05;;;3.72;;
22131;SDS011;11232;51.748;19.390;2023-07-20T06:28:37;5.70;;;4.10;;
22131;SDS011;11232;51.748;19.390;2023-07-20T06:31:03;10.98;;;3.78;;
22131;SDS011;11232;51.748;19.390;2023-07-20T06:33:29;8.25;;;3.92;;
22131;SDS011;11232;51.748;19.390;2023-07-20T06:35:55;5.05;;;3.63;;
22131;SDS011;11232;51.748;19.390;2023-07-20T06:38:24;6.75;;;4.05;;
22131;SDS011;11232;51.748;19.390;2023-07-20T06:40:51;4.82;;;3.70;;
22131;SDS011;11232;51.748;19.390;2023-07-20T06:43:17;8.73;;;3.92;;
22131;SDS011;11232;51.748;19.390;2023-07-20T06:45:43;7.97;;;3.55;;
22131;SDS011;11232;51.748;19.390;2023-07-20T06:48:09;6.00;;;3.35;;
22131;SDS011;11232;51.748;19.390;2023-07-20T06:50:35;6.00;;;4.20;;
22131;SDS011;11232;51.748;19.390;2023-07-20T06:53:01;7.00;;;4.10;;
22131;SDS011;11232;51.748;19.390;2023-07-20T06:55:29;6.25;;;4.40;;
22131;SDS011;11232;51.748;19.390;2023-07-20T06:57:55;8.07;;;4.00;;
22131;SDS011;11232;51.748;19.390;2023-07-20T07:00:21;4.63;;;3.72;;
22131;SDS011;11232;51.748;19.390;2023-07-20T07:02:47;5.43;;;3.83;;
22131;SDS011;11232;51.748;19.390;2023-07-20T07:05:13;8.43;;;4.20;;
22131;SDS011;11232;51.748;19.390;2023-07-20T07:07:40;6.97;;;4.05;;
22131;SDS011;11232;51.748;19.390;2023-07-20T07:10:07;7.00;;;4.30;;
22131;SDS011;11232;51.748;19.390;2023-07-20T07:12:33;5.03;;;4.00;;
22131;SDS011;11232;51.748;19.390;2023-07-20T07:15:00;12.13;;;3.97;;
22131;SDS011;11232;51.748;19.390;2023-07-20T07:17:26;6.30;;;3.80;;
22131;SDS011;11232;51.748;19.390;2023-07-20T07:19:52;8.02;;;4.18;;
22131;SDS011;11232;51.748;19.390;2023-07-20T07:22:20;6.20;;;4.28;;
22131;SDS011;11232;51.748;19.390;2023-07-20T07:24:46;7.43;;;3.92;;
22131;SDS011;11232;51.748;19.390;2023-07-20T07:27:12;11.38;;;4.25;;
22131;SDS011;11232;51.748;19.390;2023-07-20T07:29:41;5.68;;;4.15;;
22131;SDS011;11232;51.748;19.390;2023-07-20T07:32:09;6.40;;;3.88;;
22131;SDS011;11232;51.748;19.390;2023-07-20T07:34:36;4.57;;;3.85;;
22131;SDS011;11232;51.748;19.390;2023-07-20T07:37:02;7.22;;;4.43;;
22131;SDS011;11232;51.748;19.390;2023-07-20T07:39:28;3.92;;;3.50;;
22131;SDS011;11232;51.748;19.390;2023-07-20T07:41:55;5.20;;;3.65;;
22131;SDS011;11232;51.748;19.390;2023-07-20T07:44:21;7.18;;;3.80;;
22131;SDS011;11232;51.748;19.390;2023-07-20T07:46:47;7.18;;;3.33;;
22131;SDS011;11232;51.748;19.390;2023-07-20T07:49:14;6.22;;;3.22;;
22131;SDS011;11232;51.748;19.390;2023-07-20T07:51:39;5.07;;;3.50;;
22131;SDS011;11232;51.748;19.390;2023-07-20T07:54:06;4.10;;;3.15;;
22131;SDS011;11232;51.748;19.390;2023-07-20T07:56:32;5.43;;;3.28;;
22131;SDS011;11232;51.748;19.390;2023-07-20T07:58:58;4.30;;;3.40;;
22131;SDS011;11232;51.748;19.390;2023-07-20T08:01:24;6.00;;;4.00;;
22131;SDS011;11232;51.748;19.390;2023-07-20T08:03:50;7.95;;;3.97;;
22131;SDS011;11232;51.748;19.390;2023-07-20T08:06:16;7.93;;;4.22;;
22131;SDS011;11232;51.748;19.390;2023-07-20T08:08:42;6.95;;;4.57;;
22131;SDS011;11232;51.748;19.390;2023-07-20T08:11:08;7.10;;;4.70;;
22131;SDS011;11232;51.748;19.390;2023-07-20T08:13:35;9.63;;;4.53;;
22131;SDS011;11232;51.748;19.390;2023-07-20T08:16:01;5.97;;;4.22;;
22131;SDS011;11232;51.748;19.390;2023-07-20T08:18:27;5.18;;;4.30;;
22131;SDS011;11232;51.748;19.390;2023-07-20T08:20:54;11.27;;;4.28;;
22131;SDS011;11232;51.748;19.390;2023-07-20T08:23:20;8.45;;;4.72;;
22131;SDS011;11232;51.748;19.390;2023-07-20T08:25:46;9.68;;;4.20;;
22131;SDS011;11232;51.748;19.390;2023-07-20T08:28:13;5.40;;;3.92;;
22131;SDS011;11232;51.748;19.390;2023-07-20T08:30:40;5.32;;;3.67;;
22131;SDS011;11232;51.748;19.390;2023-07-20T08:33:07;6.90;;;3.47;;
22131;SDS011;11232;51.748;19.390;2023-07-20T08:35:33;5.20;;;3.20;;
22131;SDS011;11232;51.748;19.390;2023-07-20T08:37:59;5.20;;;3.35;;
22131;SDS011;11232;51.748;19.390;2023-07-20T08:40:25;8.73;;;3.60;;
22131;SDS011;11232;51.748;19.390;2023-07-20T08:42:52;5.97;;;3.47;;
22131;SDS011;11232;51.748;19.390;2023-07-20T08:45:18;5.30;;;3.50;;
22131;SDS011;11232;51.748;19.390;2023-07-20T08:47:44;4.25;;;3.30;;
22131;SDS011;11232;51.748;19.390;2023-07-20T08:50:11;5.78;;;3.47;;
22131;SDS011;11232;51.748;19.390;2023-07-20T08:52:37;4.70;;;3.80;;
22131;SDS011;11232;51.748;19.390;2023-07-20T08:55:03;6.20;;;3.65;;
22131;SDS011;11232;51.748;19.390;2023-07-20T08:57:31;3.30;;;3.00;;
22131;SDS011;11232;51.748;19.390;2023-07-20T08:59:58;3.00;;;2.50;;
22131;SDS011;11232;51.748;19.390;2023-07-20T09:02:24;4.20;;;2.63;;
22131;SDS011;11232;51.748;19.390;2023-07-20T09:04:52;7.55;;;2.90;;
22131;SDS011;11232;51.748;19.390;2023-07-20T09:07:18;3.47;;;2.45;;
22131;SDS011;11232;51.748;19.390;2023-07-20T09:09:45;3.80;;;2.85;;
22131;SDS011;11232;51.748;19.390;2023-07-20T09:12:14;2.65;;;2.45;;
22131;SDS011;11232;51.748;19.390;2023-07-20T09:14:42;5.30;;;2.40;;
22131;SDS011;11232;51.748;19.390;2023-07-20T09:17:12;4.28;;;2.42;;
22131;SDS011;11232;51.748;19.390;2023-07-20T09:19:38;3.75;;;2.50;;
22131;SDS011;11232;51.748;19.390;2023-07-20T09:22:05;7.13;;;2.70;;
22131;SDS011;11232;51.748;19.390;2023-07-20T09:24:31;4.03;;;2.80;;
22131;SDS011;11232;51.748;19.390;2023-07-20T09:26:57;3.47;;;2.40;;
22131;SDS011;11232;51.748;19.390;2023-07-20T09:29:28;3.72;;;2.40;;
22131;SDS011;11232;51.748;19.390;2023-07-20T09:32:04;2.10;;;1.70;;
22131;SDS011;11232;51.748;19.390;2023-07-20T09:34:33;3.17;;;1.98;;
22131;SDS011;11232;51.748;19.390;2023-07-20T09:36:59;3.40;;;2.40;;
22131;SDS011;11232;51.748;19.390;2023-07-20T09:39:26;2.35;;;2.15;;
22131;SDS011;11232;51.748;19.390;2023-07-20T09:41:52;2.90;;;1.80;;
22131;SDS011;11232;51.748;19.390;2023-07-20T09:44:19;2.17;;;1.98;;
22131;SDS011;11232;51.748;19.390;2023-07-20T09:46:46;4.53;;;2.10;;
22131;SDS011;11232;51.748;19.390;2023-07-20T09:49:12;3.78;;;2.40;;
22131;SDS011;11232;51.748;19.390;2023-07-20T09:51:38;4.43;;;2.05;;
22131;SDS011;11232;51.748;19.390;2023-07-20T09:54:04;3.78;;;2.17;;
22131;SDS011;11232;51.748;19.390;2023-07-20T09:56:31;4.75;;;2.17;;
22131;SDS011;11232;51.748;19.390;2023-07-20T09:58:58;2.53;;;2.33;;
22131;SDS011;11232;51.748;19.390;2023-07-20T10:01:24;3.15;;;2.25;;
22131;SDS011;11232;51.748;19.390;2023-07-20T10:03:53;3.78;;;2.30;;
22131;SDS011;11232;51.748;19.390;2023-07-20T10:06:23;4.70;;;2.40;;
22131;SDS011;11232;51.748;19.390;2023-07-20T10:08:53;4.20;;;2.00;;
22131;SDS011;11232;51.748;19.390;2023-07-20T10:11:19;2.75;;;2.10;;
22131;SDS011;11232;51.748;19.390;2023-07-20T10:13:47;3.10;;;2.17;;
22131;SDS011;11232;51.748;19.390;2023-07-20T10:16:21;3.00;;;2.00;;
22131;SDS011;11232;51.748;19.390;2023-07-20T10:21:23;3.15;;;2.13;;
22131;SDS011;11232;51.748;19.390;2023-07-20T10:23:49;4.72;;;2.05;;
22131;SDS011;11232;51.748;19.390;2023-07-20T10:26:15;3.55;;;2.20;;
22131;SDS011;11232;51.748;19.390;2023-07-20T10:28:41;2.42;;;1.95;;
22131;SDS011;11232;51.748;19.390;2023-07-20T10:31:07;3.75;;;2.10;;
22131;SDS011;11232;51.748;19.390;2023-07-20T10:33:34;5.90;;;2.20;;
22131;SDS011;11232;51.748;19.390;2023-07-20T10:36:01;4.15;;;1.60;;
22131;SDS011;11232;51.748;19.390;2023-07-20T10:44:04;2.05;;;1.58;;
22131;SDS011;11232;51.748;19.390;2023-07-20T10:46:34;3.95;;;2.05;;
22131;SDS011;11232;51.748;19.390;2023-07-20T10:49:02;2.95;;;1.73;;
22131;SDS011;11232;51.748;19.390;2023-07-20T10:51:28;4.38;;;1.92;;
22131;SDS011;11232;51.748;19.390;2023-07-20T10:53:55;2.08;;;1.80;;
22131;SDS011;11232;51.748;19.390;2023-07-20T10:56:23;2.63;;;1.85;;
22131;SDS011;11232;51.748;19.390;2023-07-20T10:58:55;2.10;;;1.90;;
22131;SDS011;11232;51.748;19.390;2023-07-20T11:01:21;2.25;;;1.90;;
22131;SDS011;11232;51.748;19.390;2023-07-20T11:03:50;5.10;;;2.10;;
22131;SDS011;11232;51.748;19.390;2023-07-20T11:09:07;2.50;;;2.30;;
22131;SDS011;11232;51.748;19.390;2023-07-20T11:11:36;3.92;;;2.30;;
22131;SDS011;11232;51.748;19.390;2023-07-20T11:14:03;3.08;;;2.40;;
22131;SDS011;11232;51.748;19.390;2023-07-20T11:18:58;2.40;;;2.20;;
22131;SDS011;11232;51.748;19.390;2023-07-20T11:21:24;3.60;;;2.47;;
22131;SDS011;11232;51.748;19.390;2023-07-20T11:23:54;3.08;;;2.40;;
22131;SDS011;11232;51.748;19.390;2023-07-20T11:26:21;3.42;;;2.67;;
22131;SDS011;11232;51.748;19.390;2023-07-20T11:28:50;5.45;;;2.30;;
22131;SDS011;11232;51.748;19.390;2023-07-20T11:31:17;3.58;;;3.10;;
22131;SDS011;11232;51.748;19.390;2023-07-20T11:33:43;3.15;;;2.85;;
22131;SDS011;11232;51.748;19.390;2023-07-20T11:36:09;5.45;;;2.97;;
22131;SDS011;11232;51.748;19.390;2023-07-20T11:38:35;5.70;;;3.13;;
22131;SDS011;11232;51.748;19.390;2023-07-20T11:41:04;6.57;;;3.33;;
22131;SDS011;11232;51.748;19.390;2023-07-20T11:43:30;5.13;;;3.72;;
22131;SDS011;11232;51.748;19.390;2023-07-20T11:45:56;6.50;;;4.05;;
22131;SDS011;11232;51.748;19.390;2023-07-20T11:48:22;5.18;;;3.70;;
22131;SDS011;11232;51.748;19.390;2023-07-20T11:50:48;4.03;;;3.20;;
22131;SDS011;11232;51.748;19.390;2023-07-20T11:53:14;7.20;;;2.88;;
22131;SDS011;11232;51.748;19.390;2023-07-20T11:55:41;2.60;;;2.20;;
22131;SDS011;11232;51.748;19.390;2023-07-20T11:58:08;2.65;;;2.25;;
22131;SDS011;11232;51.748;19.390;2023-07-20T12:00:36;2.05;;;1.48;;
22131;SDS011;11232;51.748;19.390;2023-07-20T12:03:05;1.95;;;1.27;;
22131;SDS011;11232;51.748;19.390;2023-07-20T12:05:35;4.40;;;1.20;;
22131;SDS011;11232;51.748;19.390;2023-07-20T12:08:01;1.35;;;1.05;;
22131;SDS011;11232;51.748;19.390;2023-07-20T12:10:28;1.55;;;1.05;;
22131;SDS011;11232;51.748;19.390;2023-07-20T12:12:55;0.98;;;0.90;;
22131;SDS011;11232;51.748;19.390;2023-07-20T12:15:27;4.32;;;1.00;;
22131;SDS011;11232;51.748;19.390;2023-07-20T12:17:59;1.63;;;1.33;;
22131;SDS011;11232;51.748;19.390;2023-07-20T12:22:51;1.52;;;1.15;;
22131;SDS011;11232;51.748;19.390;2023-07-20T12:25:17;1.40;;;1.30;;
22131;SDS011;11232;51.748;19.390;2023-07-20T12:27:45;1.52;;;1.20;;
22131;SDS011;11232;51.748;19.390;2023-07-20T12:30:12;2.45;;;1.60;;
22131;SDS011;11232;51.748;19.390;2023-07-20T12:32:38;1.63;;;1.52;;
22131;SDS011;11232;51.748;19.390;2023-07-20T12:35:05;1.40;;;1.30;;
22131;SDS011;11232;51.748;19.390;2023-07-20T12:37:31;2.67;;;1.35;;
22131;SDS011;11232;51.748;19.390;2023-07-20T12:39:57;1.20;;;1.10;;
22131;SDS011;11232;51.748;19.390;2023-07-20T12:42:23;1.63;;;1.13;;
22131;SDS011;11232;51.748;19.390;2023-07-20T12:44:49;1.27;;;1.15;;
22131;SDS011;11232;51.748;19.390;2023-07-20T12:47:16;1.20;;;1.20;;
22131;SDS011;11232;51.748;19.390;2023-07-20T12:49:42;4.65;;;1.10;;
22131;SDS011;11232;51.748;19.390;2023-07-20T12:52:11;1.40;;;1.05;;
22131;SDS011;11232;51.748;19.390;2023-07-20T12:54:38;1.30;;;1.05;;
22131;SDS011;11232;51.748;19.390;2023-07-20T12:57:04;2.90;;;1.00;;
22131;SDS011;11232;51.748;19.390;2023-07-20T12:59:30;2.65;;;0.93;;
22131;SDS011;11232;51.748;19.390;2023-07-20T13:01:56;1.33;;;0.95;;
22131;SDS011;11232;51.748;19.390;2023-07-20T13:04:22;0.85;;;0.80;;
22131;SDS011;11232;51.748;19.390;2023-07-20T13:06:48;1.50;;;0.70;;
22131;SDS011;11232;51.748;19.390;2023-07-20T13:09:14;2.00;;;0.68;;
22131;SDS011;11232;51.748;19.390;2023-07-20T13:11:40;1.08;;;0.98;;
22131;SDS011;11232;51.748;19.390;2023-07-20T13:14:06;0.85;;;0.63;;
22131;SDS011;11232;51.748;19.390;2023-07-20T13:16:32;0.60;;;0.60;;
22131;SDS011;11232;51.748;19.390;2023-07-20T13:18:59;1.75;;;0.80;;
22131;SDS011;11232;51.748;19.390;2023-07-20T13:21:25;2.40;;;1.00;;
22131;SDS011;11232;51.748;19.390;2023-07-20T13:23:50;1.45;;;0.93;;
22131;SDS011;11232;51.748;19.390;2023-07-20T13:26:16;5.05;;;1.00;;
22131;SDS011;11232;51.748;19.390;2023-07-20T13:28:42;5.53;;;1.23;;
22131;SDS011;11232;51.748;19.390;2023-07-20T13:31:08;1.20;;;1.10;;
22131;SDS011;11232;51.748;19.390;2023-07-20T13:33:36;1.45;;;1.35;;
22131;SDS011;11232;51.748;19.390;2023-07-20T13:36:02;2.22;;;1.10;;
22131;SDS011;11232;51.748;19.390;2023-07-20T13:38:30;1.88;;;1.27;;
22131;SDS011;11232;51.748;19.390;2023-07-20T13:40:56;1.10;;;1.00;;
22131;SDS011;11232;51.748;19.390;2023-07-20T13:43:22;1.20;;;1.10;;
22131;SDS011;11232;51.748;19.390;2023-07-20T13:45:48;0.95;;;0.85;;
22131;SDS011;11232;51.748;19.390;2023-07-20T13:48:14;1.05;;;0.90;;
22131;SDS011;11232;51.748;19.390;2023-07-20T13:50:40;1.35;;;0.95;;
22131;SDS011;11232;51.748;19.390;2023-07-20T13:53:06;0.93;;;0.80;;
22131;SDS011;11232;51.748;19.390;2023-07-20T13:55:32;1.15;;;0.90;;
22131;SDS011;11232;51.748;19.390;2023-07-20T13:58:01;1.15;;;0.80;;
22131;SDS011;11232;51.748;19.390;2023-07-20T14:00:27;0.70;;;0.70;;
22131;SDS011;11232;51.748;19.390;2023-07-20T14:02:57;0.70;;;0.70;;
22131;SDS011;11232;51.748;19.390;2023-07-20T14:05:23;2.92;;;0.90;;
22131;SDS011;11232;51.748;19.390;2023-07-20T14:07:49;2.47;;;0.95;;
22131;SDS011;11232;51.748;19.390;2023-07-20T14:10:15;1.90;;;0.80;;
22131;SDS011;11232;51.748;19.390;2023-07-20T14:12:42;1.65;;;1.20;;
22131;SDS011;11232;51.748;19.390;2023-07-20T14:15:09;3.35;;;1.08;;
22131;SDS011;11232;51.748;19.390;2023-07-20T14:17:35;2.20;;;1.02;;
22131;SDS011;11232;51.748;19.390;2023-07-20T14:20:01;1.65;;;0.93;;
22131;SDS011;11232;51.748;19.390;2023-07-20T14:22:30;1.23;;;1.17;;
22131;SDS011;11232;51.748;19.390;2023-07-20T14:24:56;1.20;;;1.05;;
22131;SDS011;11232;51.748;19.390;2023-07-20T14:27:22;1.10;;;1.00;;
22131;SDS011;11232;51.748;19.390;2023-07-20T14:29:48;1.10;;;1.00;;
22131;SDS011;11232;51.748;19.390;2023-07-20T14:32:14;1.10;;;1.00;;
22131;SDS011;11232;51.748;19.390;2023-07-20T14:34:40;2.00;;;1.30;;
22131;SDS011;11232;51.748;19.390;2023-07-20T14:37:06;1.05;;;1.05;;
22131;SDS011;11232;51.748;19.390;2023-07-20T14:39:32;1.35;;;1.23;;
22131;SDS011;11232;51.748;19.390;2023-07-20T14:41:58;1.17;;;1.10;;
22131;SDS011;11232;51.748;19.390;2023-07-20T14:44:24;1.25;;;1.10;;
22131;SDS011;11232;51.748;19.390;2023-07-20T14:46:50;1.85;;;0.98;;
22131;SDS011;11232;51.748;19.390;2023-07-20T14:49:16;1.30;;;1.20;;
22131;SDS011;11232;51.748;19.390;2023-07-20T14:51:43;1.27;;;1.17;;
22131;SDS011;11232;51.748;19.390;2023-07-20T14:54:12;1.30;;;1.20;;
22131;SDS011;11232;51.748;19.390;2023-07-20T14:56:38;1.50;;;0.80;;